Impacts METAR Board
IDs:

KDEN - Denver Intl, CO, US

Updated at: 0300 UTC 10 Dec 2018
Potential Impact None Slight Moderate High
Time 09/15Z 09/16Z 09/17Z 09/18Z 09/19Z 09/20Z 09/21Z 09/22Z 09/23Z 10/00Z 10/01Z 10/02Z 10/03Z
Temp25 28 33 37 40 42 44 44 41 39 33 36 29
Dewpt18 20 22 20 19 17 13 12 12 11 11 10 12
Altim30.36 30.38 30.39 30.38 30.35 30.33 30.31 30.30 30.31 30.32 30.32 30.32 30.32
VIS10 10 10 10 10 10 10 10 10 10 10 10 10
CIG-- -- -- -- -- -- -- -- -- -- -- -- --
CoverFEWFEWFEWFEWFEWFEWFEWFEWFEWFEWCLRCLRCLR
FltCatVFRVFRVFRVFRVFRVFRVFRVFRVFRVFRVFRVFRVFR
WX--------------------------
WDir2702302001300000200230190200
WSpd3 4 4 5 0 0 3 4 6 0 5 5 10
WGst-- -- -- -- -- -- -- -- -- -- -- -- --
Raw hourly METARs
KDEN 091453Z 27003KT 10SM FEW070 FEW120 FEW220 M04/M08 A3036 RMK AO2 SLP305 T10391078 53015
KDEN 091553Z 23004KT 10SM FEW070 FEW120 FEW220 M02/M07 A3038 RMK AO2 SLP314 T10221067
KDEN 091653Z 20004KT 10SM FEW080 FEW150 01/M06 A3039 RMK AO2 SLP309 T00061056
KDEN 091753Z 13005KT 10SM FEW080 FEW140 03/M07 A3038 RMK AO2 SLP304 T00281067 10028 21067 50007
KDEN 091853Z 00000KT 10SM FEW080 FEW140 04/M07 A3035 RMK AO2 SLP286 T00441072
KDEN 091953Z 00000KT 10SM FEW080 FEW140 06/M08 A3033 RMK AO2 SLP277 T00561083
KDEN 092053Z VRB03KT 10SM FEW080 FEW140 07/M11 A3031 RMK AO2 SLP274 T00671106 56022
KDEN 092153Z VRB04KT 10SM FEW080 FEW140 07/M11 A3030 RMK AO2 SLP273 T00671111
KDEN 092253Z 02006KT 10SM FEW070 05/M11 A3031 RMK AO2 SLP280 T00501111
KDEN 092353Z 00000KT 10SM FEW070 04/M12 A3032 RMK AO2 SLP277 T00391117 10072 20028 53003
KDEN 100053Z 23005KT 10SM CLR 01/M12 A3032 RMK AO2 SLP290 T00061117
KDEN 100153Z 19005KT 10SM CLR 02/M12 A3032 RMK AO2 SLP288 T00221122
KDEN 100253Z 20010KT 10SM CLR M02/M11 A3032 RMK AO2 SLP293 T10171111 50000



Page loaded:  03:58 UTC  |   07:58 PM Pacific  |   08:58 PM Mountain  |   09:58 PM Central  |   10:58 PM Eastern

 

ADVISORIES

FORECASTS

FORECASTS

OBSERVATIONS

USER TOOLS

ABOUT US